createdAt,value
2022-09-28T00:01:05.153Z,19.8
2022-09-28T00:21:05.133Z,19.8
2022-09-28T00:41:05.112Z,19.8
2022-09-28T01:01:05.097Z,19.7
2022-09-28T01:21:05.058Z,19.7
2022-09-28T01:41:05.039Z,19.7
2022-09-28T02:01:04.995Z,19.7
2022-09-28T02:21:04.964Z,19.6
2022-09-28T02:41:04.981Z,19.6
2022-09-28T03:01:04.938Z,19.6
2022-09-28T03:21:04.928Z,19.6
2022-09-28T03:41:04.877Z,19.5
2022-09-28T04:01:04.872Z,19.5
2022-09-28T04:21:04.865Z,19.5
2022-09-28T04:41:04.797Z,19.5
2022-09-28T05:01:04.794Z,19.5
2022-09-28T05:21:04.789Z,19.5
2022-09-28T05:41:04.720Z,19.5
2022-09-28T06:01:04.700Z,19.8
2022-09-28T06:21:04.681Z,20.1
2022-09-28T06:41:04.656Z,20.3
2022-09-28T07:01:04.625Z,20.6
2022-09-28T07:21:04.664Z,20.4
2022-09-28T07:41:04.581Z,20.4
2022-09-28T08:01:04.611Z,20.2
2022-09-28T08:21:04.553Z,20.1
2022-09-28T08:41:04.503Z,20.0
2022-09-28T09:01:04.536Z,20.1
2022-09-28T09:21:04.459Z,20.2
2022-09-28T09:41:04.457Z,20.3
2022-09-28T10:01:04.397Z,20.3
2022-09-28T10:21:04.394Z,20.2
2022-09-28T10:41:04.340Z,20.2
2022-09-28T11:01:04.354Z,20.3
2022-09-28T11:21:04.331Z,20.4
2022-09-28T11:41:04.307Z,20.5
2022-09-28T12:01:04.266Z,20.3
2022-09-28T12:21:04.273Z,20.0
2022-09-28T12:41:04.238Z,20.1
2022-09-28T13:01:04.214Z,20.2
2022-09-28T13:21:04.194Z,20.3
2022-09-28T13:41:04.146Z,20.3
2022-09-28T14:01:04.131Z,20.4
2022-09-28T14:21:04.176Z,20.4
2022-09-28T14:41:04.049Z,20.4
2022-09-28T15:01:04.038Z,20.4
2022-09-28T15:21:04.009Z,20.7
2022-09-28T15:41:04.011Z,20.4
2022-09-28T16:01:04.072Z,20.2
2022-09-28T16:21:03.922Z,20.1
2022-09-28T16:41:03.908Z,20.1
2022-09-28T17:01:03.860Z,20.0
2022-09-28T17:21:03.853Z,19.9
2022-09-28T17:41:03.848Z,19.9
2022-09-28T18:01:03.789Z,19.8
2022-09-28T18:21:03.950Z,19.8
2022-09-28T18:41:03.894Z,19.8
2022-09-28T19:01:03.909Z,19.8
2022-09-28T19:21:03.843Z,19.8
2022-09-28T19:41:03.857Z,19.7
2022-09-28T20:01:03.837Z,19.7
2022-09-28T20:21:03.659Z,19.7
2022-09-28T20:41:03.745Z,19.7
2022-09-28T21:01:03.676Z,19.7
2022-09-28T21:21:03.691Z,19.7
2022-09-28T21:41:03.691Z,19.6
2022-09-28T22:01:03.530Z,19.6
2022-09-28T22:21:03.620Z,19.6
2022-09-28T22:41:03.521Z,19.6
2022-09-28T23:01:03.472Z,19.6
2022-09-28T23:21:03.467Z,19.6
2022-09-28T23:41:03.413Z,19.5
